createdAt,value
2017-11-26T00:00:55.624Z,52.03
2017-11-26T00:03:21.824Z,52.12
2017-11-26T00:05:48.024Z,52.13
2017-11-26T00:08:14.355Z,52.13
2017-11-26T00:10:40.570Z,52.17
2017-11-26T00:13:06.820Z,52.14
2017-11-26T00:15:33.145Z,52.10
2017-11-26T00:17:59.647Z,52.06
2017-11-26T00:20:25.911Z,52.16
2017-11-26T00:22:52.431Z,52.12
2017-11-26T00:25:18.626Z,52.01
2017-11-26T00:27:44.831Z,51.97
2017-11-26T00:30:11.118Z,52.01
2017-11-26T00:32:37.373Z,51.98
2017-11-26T00:35:03.559Z,51.90
2017-11-26T00:37:29.913Z,51.90
2017-11-26T00:39:56.194Z,51.90
2017-11-26T00:42:22.627Z,51.96
2017-11-26T00:44:48.898Z,52.03
2017-11-26T00:47:15.324Z,51.93
2017-11-26T00:49:41.537Z,51.96
2017-11-26T00:52:07.894Z,52.03
2017-11-26T00:54:34.113Z,52.06
2017-11-26T00:57:00.328Z,52.18
2017-11-26T00:59:26.829Z,52.18
2017-11-26T01:01:53.277Z,52.19
2017-11-26T01:04:19.468Z,52.13
2017-11-26T01:06:45.810Z,52.03
2017-11-26T01:09:12.256Z,52.02
2017-11-26T01:11:38.493Z,51.99
2017-11-26T01:14:04.775Z,51.94
2017-11-26T01:16:30.997Z,51.82
2017-11-26T01:18:57.183Z,51.74
2017-11-26T01:21:23.447Z,51.67
2017-11-26T01:23:49.660Z,51.57
2017-11-26T01:26:15.886Z,51.50
2017-11-26T01:28:42.126Z,51.45
2017-11-26T01:31:08.351Z,51.34
2017-11-26T01:33:34.873Z,51.33
2017-11-26T01:36:01.129Z,51.35
2017-11-26T01:38:27.323Z,51.34
2017-11-26T01:40:53.531Z,51.33
2017-11-26T01:43:19.782Z,51.30
2017-11-26T01:45:45.984Z,51.32
2017-11-26T01:48:12.313Z,51.29
2017-11-26T01:50:38.520Z,51.28
2017-11-26T01:53:04.732Z,51.24
2017-11-26T01:55:31.025Z,51.20
2017-11-26T01:57:57.274Z,51.15
2017-11-26T02:00:23.750Z,51.09
2017-11-26T02:02:50.025Z,51.11
2017-11-26T02:05:16.244Z,51.06
2017-11-26T02:07:42.703Z,51.03
2017-11-26T02:10:08.962Z,51.04
2017-11-26T02:12:35.175Z,51.06
2017-11-26T02:15:01.394Z,51.10
2017-11-26T02:17:27.896Z,51.06
2017-11-26T02:19:54.115Z,51.06
2017-11-26T02:22:20.337Z,51.04
2017-11-26T02:24:46.608Z,51.00
2017-11-26T02:27:12.807Z,51.03
2017-11-26T02:29:39.103Z,51.00
2017-11-26T02:32:17.631Z,50.95
2017-11-26T02:34:55.961Z,51.00
2017-11-26T02:37:22.316Z,50.95
2017-11-26T02:39:48.785Z,50.93
2017-11-26T02:42:14.996Z,50.87
2017-11-26T02:44:41.347Z,50.96
2017-11-26T02:47:07.829Z,50.99
2017-11-26T02:49:34.053Z,50.97
2017-11-26T02:52:00.415Z,50.90
2017-11-26T02:54:26.640Z,50.86
2017-11-26T02:56:52.863Z,50.79
2017-11-26T02:59:19.218Z,50.78
2017-11-26T03:01:45.427Z,50.77
2017-11-26T03:04:11.717Z,50.79
2017-11-26T03:06:38.076Z,50.77
2017-11-26T03:09:04.299Z,50.70
2017-11-26T03:11:30.490Z,50.65
2017-11-26T03:13:56.837Z,50.67
2017-11-26T03:16:23.062Z,50.70
2017-11-26T03:18:49.272Z,50.68
2017-11-26T03:21:15.533Z,50.69
2017-11-26T03:23:41.838Z,50.70
2017-11-26T03:26:08.042Z,50.66
2017-11-26T03:28:34.587Z,50.66
2017-11-26T03:31:00.922Z,50.61
2017-11-26T03:33:27.135Z,50.61
2017-11-26T03:35:53.502Z,50.61
2017-11-26T03:38:19.795Z,50.66
2017-11-26T03:40:46.038Z,50.66
2017-11-26T03:43:12.304Z,50.70
2017-11-26T03:45:38.547Z,50.73
2017-11-26T03:48:04.743Z,50.70
2017-11-26T03:50:31.295Z,50.56
2017-11-26T03:52:57.497Z,50.53
2017-11-26T03:55:23.801Z,50.50
2017-11-26T03:57:50.428Z,50.47
2017-11-26T04:00:16.639Z,50.45
2017-11-26T04:02:42.853Z,50.33
2017-11-26T04:05:09.414Z,50.33
2017-11-26T04:07:35.616Z,50.34
2017-11-26T04:10:01.840Z,50.29
2017-11-26T04:12:28.094Z,50.28
2017-11-26T04:14:54.308Z,50.26
2017-11-26T04:17:20.555Z,50.22
2017-11-26T04:19:46.885Z,50.26
2017-11-26T04:22:13.320Z,50.23
2017-11-26T04:24:39.511Z,50.24
2017-11-26T04:27:05.896Z,50.26
2017-11-26T04:29:32.331Z,50.24
2017-11-26T04:31:58.634Z,50.19
2017-11-26T04:34:24.969Z,50.23
2017-11-26T04:36:51.425Z,50.28
2017-11-26T04:39:17.885Z,50.17
2017-11-26T04:41:44.165Z,50.12
2017-11-26T04:44:10.394Z,50.03
2017-11-26T04:46:36.909Z,50.04
2017-11-26T04:49:03.422Z,50.03
2017-11-26T04:51:29.635Z,50.04
2017-11-26T04:53:56.080Z,50.00
2017-11-26T04:56:22.352Z,50.01
2017-11-26T04:58:48.561Z,49.99
2017-11-26T05:01:14.963Z,49.95
2017-11-26T05:03:41.491Z,49.94
2017-11-26T05:06:07.702Z,49.91
2017-11-26T05:08:33.907Z,49.86
2017-11-26T05:11:00.231Z,49.83
2017-11-26T05:13:26.437Z,49.82
2017-11-26T05:15:52.887Z,49.68
2017-11-26T05:18:19.364Z,49.68
2017-11-26T05:20:45.576Z,49.58
2017-11-26T05:23:11.841Z,49.52
2017-11-26T05:25:44.153Z,49.44
2017-11-26T05:28:10.422Z,49.43
2017-11-26T05:30:36.681Z,49.40
2017-11-26T05:33:02.912Z,49.35
2017-11-26T05:35:29.122Z,49.36
2017-11-26T05:37:55.439Z,49.29
2017-11-26T05:40:21.695Z,49.28
2017-11-26T05:42:48.232Z,49.28
2017-11-26T05:45:14.858Z,49.28
2017-11-26T05:47:41.116Z,49.26
2017-11-26T05:50:07.357Z,49.29
2017-11-26T05:52:33.618Z,49.32
2017-11-26T05:54:59.817Z,49.45
2017-11-26T05:57:26.260Z,49.52
2017-11-26T05:59:52.606Z,49.51
2017-11-26T06:02:18.812Z,49.46
2017-11-26T06:04:45.251Z,49.49
2017-11-26T06:07:11.522Z,49.43
2017-11-26T06:09:37.702Z,49.39
2017-11-26T06:12:04.044Z,49.32
2017-11-26T06:14:30.255Z,49.32
2017-11-26T06:16:56.466Z,49.24
2017-11-26T06:19:23.027Z,49.16
2017-11-26T06:21:49.234Z,49.16
2017-11-26T06:24:15.445Z,49.17
2017-11-26T06:26:41.703Z,49.13
2017-11-26T06:29:07.931Z,49.11
2017-11-26T06:31:34.132Z,49.11
2017-11-26T06:34:00.477Z,49.12
2017-11-26T06:36:26.695Z,49.07
2017-11-26T06:38:52.900Z,49.05
2017-11-26T06:41:19.187Z,49.07
2017-11-26T06:43:45.501Z,49.07
2017-11-26T06:46:11.812Z,49.11
2017-11-26T06:48:38.150Z,49.10
2017-11-26T06:51:04.382Z,49.09
2017-11-26T06:53:30.574Z,49.05
2017-11-26T06:55:56.923Z,48.96
2017-11-26T06:58:23.378Z,48.94
2017-11-26T07:00:49.587Z,48.97
2017-11-26T07:03:15.842Z,48.95
2017-11-26T07:05:42.082Z,48.93
2017-11-26T07:08:08.312Z,48.87
2017-11-26T07:10:34.692Z,48.81
2017-11-26T07:13:00.910Z,48.77
2017-11-26T07:15:27.115Z,48.75
2017-11-26T07:17:53.369Z,48.79
2017-11-26T07:20:19.558Z,48.82
2017-11-26T07:22:45.776Z,48.84
2017-11-26T07:25:12.060Z,48.77
2017-11-26T07:27:38.281Z,48.70
2017-11-26T07:30:04.722Z,48.68
2017-11-26T07:32:30.971Z,48.72
2017-11-26T07:34:57.230Z,48.74
2017-11-26T07:37:23.707Z,48.71
2017-11-26T07:39:50.251Z,48.73
2017-11-26T07:42:16.465Z,48.68
2017-11-26T07:44:42.688Z,48.60
2017-11-26T07:47:09.033Z,48.53
2017-11-26T07:49:35.236Z,48.52
2017-11-26T07:52:01.686Z,48.56
2017-11-26T07:54:27.959Z,48.52
2017-11-26T07:56:54.195Z,48.54
2017-11-26T07:59:20.424Z,48.52
2017-11-26T08:01:46.923Z,48.46
2017-11-26T08:04:13.219Z,48.44
2017-11-26T08:06:39.426Z,48.42
2017-11-26T08:09:05.780Z,48.32
2017-11-26T08:11:32.349Z,48.31
2017-11-26T08:13:58.548Z,48.39
2017-11-26T08:16:25.061Z,48.42
2017-11-26T08:18:51.281Z,48.38
2017-11-26T08:21:17.489Z,48.35
2017-11-26T08:23:43.841Z,48.36
2017-11-26T08:26:10.060Z,48.31
2017-11-26T08:28:36.291Z,48.23
2017-11-26T08:31:02.587Z,48.14
2017-11-26T08:33:29.080Z,48.11
2017-11-26T08:35:55.652Z,48.09
2017-11-26T08:38:22.095Z,48.06
2017-11-26T08:40:48.362Z,48.03
2017-11-26T08:43:14.952Z,48.12
2017-11-26T08:45:41.368Z,48.08
2017-11-26T08:48:07.639Z,48.07
2017-11-26T08:50:33.898Z,48.06
2017-11-26T08:53:00.215Z,48.06
2017-11-26T08:55:26.478Z,48.07
2017-11-26T08:57:52.729Z,48.04
2017-11-26T09:00:19.069Z,47.95
2017-11-26T09:02:45.330Z,47.90
2017-11-26T09:05:11.680Z,47.87
2017-11-26T09:07:38.062Z,47.87
2017-11-26T09:10:04.338Z,47.81
2017-11-26T09:15:02.545Z,47.78
2017-11-26T09:17:28.816Z,47.78
2017-11-26T09:19:55.052Z,47.78
2017-11-26T09:22:21.461Z,47.73
2017-11-26T09:24:47.954Z,47.66
2017-11-26T09:27:14.426Z,47.62
2017-11-26T09:29:40.758Z,47.55
2017-11-26T09:32:06.961Z,47.61
2017-11-26T09:34:33.186Z,47.59
2017-11-26T09:36:59.476Z,47.57
2017-11-26T09:39:25.691Z,47.51
2017-11-26T09:41:51.902Z,47.44
2017-11-26T09:44:18.171Z,47.38
2017-11-26T09:46:44.397Z,47.36
2017-11-26T09:49:10.608Z,47.33
2017-11-26T09:51:36.856Z,47.36
2017-11-26T09:54:03.095Z,47.36
2017-11-26T09:56:29.544Z,47.33
2017-11-26T09:58:55.815Z,47.31
2017-11-26T10:01:22.259Z,47.28
2017-11-26T10:03:48.597Z,47.23
2017-11-26T10:06:14.983Z,47.19
2017-11-26T10:08:41.227Z,47.13
2017-11-26T10:11:07.442Z,47.12
2017-11-26T10:13:33.773Z,47.13
2017-11-26T10:16:00.036Z,47.08
2017-11-26T10:18:26.230Z,46.97
2017-11-26T10:20:52.520Z,47.02
2017-11-26T10:23:18.733Z,47.10
2017-11-26T10:25:44.951Z,47.08
2017-11-26T10:28:11.404Z,47.08
2017-11-26T10:30:37.624Z,46.95
2017-11-26T10:33:03.828Z,46.99
2017-11-26T10:35:30.102Z,47.02
2017-11-26T10:37:56.477Z,46.91
2017-11-26T10:40:22.751Z,46.82
2017-11-26T10:42:49.102Z,46.79
2017-11-26T10:45:15.338Z,46.80
2017-11-26T10:47:41.556Z,46.75
2017-11-26T10:50:07.913Z,46.70
2017-11-26T10:52:34.135Z,46.69
2017-11-26T10:55:00.397Z,46.67
2017-11-26T10:57:26.663Z,46.60
2017-11-26T10:59:53.144Z,46.52
2017-11-26T11:02:19.424Z,46.49
2017-11-26T11:04:45.779Z,46.55
2017-11-26T11:07:12.103Z,46.47
2017-11-26T11:09:38.626Z,46.43
2017-11-26T11:12:04.980Z,46.46
2017-11-26T11:14:31.198Z,46.41
2017-11-26T11:16:57.399Z,46.42
2017-11-26T11:19:23.670Z,46.40
2017-11-26T11:21:50.923Z,46.38
2017-11-26T11:24:17.116Z,46.37
2017-11-26T11:26:43.909Z,46.44
2017-11-26T11:29:10.367Z,46.52
2017-11-26T11:31:36.572Z,46.46
2017-11-26T11:34:02.854Z,46.42
2017-11-26T11:36:29.109Z,46.37
2017-11-26T11:38:55.331Z,46.31
2017-11-26T11:41:21.628Z,46.28
2017-11-26T11:43:47.846Z,46.38
2017-11-26T11:46:14.058Z,46.40
2017-11-26T11:48:40.301Z,46.48
2017-11-26T11:51:06.522Z,46.48
2017-11-26T11:53:32.756Z,46.45
2017-11-26T11:55:59.112Z,46.47
2017-11-26T11:58:25.333Z,46.45
2017-11-26T12:00:51.924Z,46.39
2017-11-26T12:03:18.255Z,46.35
2017-11-26T12:05:44.468Z,46.43
2017-11-26T12:08:10.690Z,46.51
2017-11-26T12:10:37.015Z,46.53
2017-11-26T12:13:04.327Z,46.57
2017-11-26T12:15:30.563Z,46.59
2017-11-26T12:17:56.898Z,46.51
2017-11-26T12:20:23.130Z,46.44
2017-11-26T12:22:49.342Z,46.35
2017-11-26T12:25:15.614Z,46.26
2017-11-26T12:27:41.837Z,46.25
2017-11-26T12:30:08.060Z,46.33
2017-11-26T12:32:34.400Z,46.38
2017-11-26T12:35:01.059Z,46.44
2017-11-26T12:37:27.256Z,46.45
2017-11-26T12:39:53.619Z,46.48
2017-11-26T12:42:19.855Z,46.44
2017-11-26T12:44:46.342Z,46.53
2017-11-26T12:47:12.688Z,46.58
2017-11-26T12:49:38.914Z,46.62
2017-11-26T12:52:05.123Z,46.63
2017-11-26T12:54:31.463Z,46.64
2017-11-26T12:56:57.929Z,46.70
2017-11-26T12:59:24.144Z,46.76
2017-11-26T13:01:50.421Z,46.75
2017-11-26T13:04:16.635Z,46.75
2017-11-26T13:06:42.838Z,46.76
2017-11-26T13:09:09.275Z,46.80
2017-11-26T13:11:35.673Z,46.77
2017-11-26T13:14:01.987Z,46.80
2017-11-26T13:16:28.276Z,46.82
2017-11-26T13:18:54.515Z,46.89
2017-11-26T13:21:21.136Z,46.95
2017-11-26T13:23:47.461Z,46.98
2017-11-26T13:26:13.667Z,47.07
2017-11-26T13:28:40.170Z,47.11
2017-11-26T13:31:06.469Z,47.10
2017-11-26T13:33:32.696Z,47.06
2017-11-26T13:35:59.020Z,47.03
2017-11-26T13:38:25.300Z,47.08
2017-11-26T13:40:51.650Z,47.15
2017-11-26T13:43:18.055Z,47.17
2017-11-26T13:45:44.326Z,47.16
2017-11-26T13:48:10.823Z,47.23
2017-11-26T13:50:37.108Z,47.28
2017-11-26T13:53:03.481Z,47.29
2017-11-26T13:55:29.721Z,47.28
2017-11-26T13:57:56.001Z,47.32
2017-11-26T14:00:22.395Z,47.28
2017-11-26T14:02:48.634Z,47.16
2017-11-26T14:05:15.018Z,47.08
2017-11-26T14:07:41.487Z,47.06
2017-11-26T14:10:07.822Z,47.04
2017-11-26T14:12:34.051Z,47.01
2017-11-26T14:15:00.434Z,47.07
2017-11-26T14:17:27.057Z,47.08
2017-11-26T14:19:53.355Z,47.14
2017-11-26T14:22:19.615Z,47.17
2017-11-26T14:24:45.849Z,47.22
2017-11-26T14:27:12.066Z,47.16
2017-11-26T14:29:38.576Z,47.19
2017-11-26T14:32:05.028Z,47.19
2017-11-26T14:34:31.269Z,47.19
2017-11-26T14:36:57.760Z,47.23
2017-11-26T14:39:24.004Z,47.24
2017-11-26T14:41:50.254Z,47.25
2017-11-26T14:44:16.823Z,47.28
2017-11-26T14:46:43.032Z,47.32
2017-11-26T14:49:09.278Z,47.35
2017-11-26T14:51:35.660Z,47.36
2017-11-26T14:54:01.943Z,47.33
2017-11-26T14:56:28.316Z,47.28
2017-11-26T14:58:54.682Z,47.29
2017-11-26T15:01:20.909Z,47.28
2017-11-26T15:03:47.382Z,47.26
2017-11-26T15:06:13.968Z,47.33
2017-11-26T15:08:40.422Z,47.32
2017-11-26T15:11:06.681Z,47.40
2017-11-26T15:13:33.019Z,47.42
2017-11-26T15:15:59.276Z,47.41
2017-11-26T15:18:25.627Z,47.40
2017-11-26T15:20:51.993Z,47.43
2017-11-26T15:23:18.259Z,47.46
2017-11-26T15:25:44.607Z,47.48
2017-11-26T15:28:11.044Z,47.52
2017-11-26T15:30:37.575Z,47.59
2017-11-26T15:33:03.798Z,47.61
2017-11-26T15:35:30.398Z,47.54
2017-11-26T15:37:56.687Z,47.59
2017-11-26T15:40:23.000Z,47.57
2017-11-26T15:42:49.403Z,47.53
2017-11-26T15:45:15.633Z,47.51
2017-11-26T15:47:41.910Z,47.49
2017-11-26T15:50:08.545Z,47.54
2017-11-26T15:52:34.755Z,47.59
2017-11-26T15:55:00.958Z,47.57
2017-11-26T15:57:27.315Z,47.57
2017-11-26T15:59:53.561Z,47.58
2017-11-26T16:02:20.033Z,47.53
2017-11-26T16:04:46.384Z,47.51
2017-11-26T16:07:12.776Z,47.52
2017-11-26T16:09:39.001Z,47.61
2017-11-26T16:12:05.343Z,47.62
2017-11-26T16:14:31.589Z,47.57
2017-11-26T16:16:57.807Z,47.60
2017-11-26T16:19:24.188Z,47.58
2017-11-26T16:21:50.399Z,47.51
2017-11-26T16:24:16.594Z,47.52
2017-11-26T16:26:42.947Z,47.50
2017-11-26T16:29:09.195Z,47.48
2017-11-26T16:31:35.402Z,47.44
2017-11-26T16:34:02.049Z,47.45
2017-11-26T16:36:28.272Z,47.45
2017-11-26T16:38:54.489Z,47.48
2017-11-26T16:41:20.809Z,47.44
2017-11-26T16:43:47.067Z,47.49
2017-11-26T16:46:13.532Z,47.50
2017-11-26T16:48:39.919Z,47.56
2017-11-26T16:51:06.485Z,47.54
2017-11-26T16:53:32.745Z,47.53
2017-11-26T16:55:59.189Z,47.54
2017-11-26T16:58:25.791Z,47.54
2017-11-26T17:00:52.104Z,47.50
2017-11-26T17:03:18.385Z,47.45
2017-11-26T17:05:44.699Z,47.42
2017-11-26T17:08:10.944Z,47.43
2017-11-26T17:13:09.069Z,47.44
2017-11-26T17:15:35.551Z,47.39
2017-11-26T17:18:01.930Z,47.39
2017-11-26T17:20:28.208Z,47.43
2017-11-26T17:22:54.678Z,47.49
2017-11-26T17:25:21.069Z,47.59
2017-11-26T17:27:47.294Z,47.57
2017-11-26T17:30:13.684Z,47.57
2017-11-26T17:32:40.051Z,47.57
2017-11-26T17:35:06.306Z,47.54
2017-11-26T17:37:32.540Z,47.58
2017-11-26T17:39:58.907Z,47.55
2017-11-26T17:42:25.157Z,47.60
2017-11-26T17:44:51.507Z,47.58
2017-11-26T17:47:17.752Z,47.54
2017-11-26T17:49:50.000Z,47.53
2017-11-26T17:52:16.223Z,47.55
2017-11-26T17:54:42.736Z,47.47
2017-11-26T17:57:08.977Z,47.48
2017-11-26T17:59:35.189Z,47.53
2017-11-26T18:02:01.524Z,47.53
2017-11-26T18:04:27.776Z,47.55
2017-11-26T18:06:53.997Z,47.62
2017-11-26T18:09:20.499Z,47.60
2017-11-26T18:11:46.940Z,47.60
2017-11-26T18:14:13.203Z,47.66
2017-11-26T18:16:39.788Z,47.61
2017-11-26T18:19:06.007Z,47.59
2017-11-26T18:21:32.222Z,47.64
2017-11-26T18:23:58.920Z,47.61
2017-11-26T18:26:25.427Z,47.60
2017-11-26T18:28:51.640Z,47.61
2017-11-26T18:31:17.964Z,47.65
2017-11-26T18:33:44.193Z,47.64
2017-11-26T18:36:10.416Z,47.61
2017-11-26T18:38:36.700Z,47.69
2017-11-26T18:41:02.909Z,47.72
2017-11-26T18:43:29.129Z,47.68
2017-11-26T18:45:55.460Z,47.65
2017-11-26T18:48:21.717Z,47.70
2017-11-26T18:50:47.936Z,47.68
2017-11-26T18:53:14.280Z,47.64
2017-11-26T18:55:40.487Z,47.67
2017-11-26T18:58:06.731Z,47.67
2017-11-26T19:00:33.004Z,47.69
2017-11-26T19:02:59.224Z,47.65
2017-11-26T19:05:25.456Z,47.66
2017-11-26T19:07:51.733Z,47.66
2017-11-26T19:10:18.173Z,47.63
2017-11-26T19:12:44.392Z,47.61
2017-11-26T19:15:10.740Z,47.60
2017-11-26T19:17:36.940Z,47.61
2017-11-26T19:20:03.169Z,47.61
2017-11-26T19:22:29.791Z,47.63
2017-11-26T19:24:55.990Z,47.63
2017-11-26T19:27:22.214Z,47.66
2017-11-26T19:29:48.582Z,47.60
2017-11-26T19:32:14.803Z,47.61
2017-11-26T19:34:41.044Z,47.60
2017-11-26T19:37:07.379Z,47.51
2017-11-26T19:39:33.571Z,47.52
2017-11-26T19:41:59.782Z,47.53
2017-11-26T19:44:26.396Z,47.54
2017-11-26T19:46:52.627Z,47.51
2017-11-26T19:49:18.904Z,47.50
2017-11-26T19:51:45.176Z,47.51
2017-11-26T19:54:11.444Z,47.54
2017-11-26T19:56:37.707Z,47.50
2017-11-26T19:59:04.850Z,47.60
2017-11-26T20:01:31.073Z,47.66
2017-11-26T20:03:57.322Z,47.66
2017-11-26T20:06:23.917Z,47.69
2017-11-26T20:08:50.174Z,47.68
2017-11-26T20:11:16.438Z,47.62
2017-11-26T20:13:42.744Z,47.58
2017-11-26T20:16:09.307Z,47.56
2017-11-26T20:18:35.530Z,47.58
2017-11-26T20:21:01.787Z,47.63
2017-11-26T20:23:27.987Z,47.61
2017-11-26T20:25:54.196Z,47.61
2017-11-26T20:28:20.512Z,47.67
2017-11-26T20:30:46.729Z,47.67
2017-11-26T20:33:12.949Z,47.65
2017-11-26T20:35:45.098Z,47.59
2017-11-26T20:38:11.311Z,47.54
2017-11-26T20:40:37.507Z,47.53
2017-11-26T20:43:04.013Z,47.52
2017-11-26T20:45:30.236Z,47.52
2017-11-26T20:47:56.493Z,47.50
2017-11-26T20:50:22.840Z,47.58
2017-11-26T20:52:49.028Z,47.63
2017-11-26T20:55:15.340Z,47.63
2017-11-26T20:57:41.606Z,47.60
2017-11-26T21:00:08.051Z,47.55
2017-11-26T21:02:34.251Z,47.52
2017-11-26T21:05:00.510Z,47.56
2017-11-26T21:07:27.061Z,47.58
2017-11-26T21:09:53.495Z,47.57
2017-11-26T21:12:19.775Z,47.52
2017-11-26T21:14:45.986Z,47.48
2017-11-26T21:17:12.264Z,47.55
2017-11-26T21:19:38.531Z,47.55
2017-11-26T21:22:04.829Z,47.55
2017-11-26T21:24:31.353Z,47.49
2017-11-26T21:26:57.706Z,47.48
2017-11-26T21:29:23.923Z,47.51
2017-11-26T21:31:50.139Z,47.50
2017-11-26T21:34:16.408Z,47.50
2017-11-26T21:36:42.609Z,47.52
2017-11-26T21:39:08.832Z,47.46
2017-11-26T21:41:35.092Z,47.47
2017-11-26T21:44:01.309Z,47.42
2017-11-26T21:46:27.511Z,47.41
2017-11-26T21:48:53.800Z,47.40
2017-11-26T21:51:19.996Z,47.37
2017-11-26T21:53:46.227Z,47.38
2017-11-26T21:56:12.474Z,47.34
2017-11-26T21:58:38.695Z,47.30
2017-11-26T22:01:04.932Z,47.30
2017-11-26T22:03:31.280Z,47.29
2017-11-26T22:05:57.478Z,47.31
2017-11-26T22:08:23.695Z,47.34
2017-11-26T22:10:56.118Z,47.33
2017-11-26T22:13:22.365Z,47.29
2017-11-26T22:15:48.806Z,47.33
2017-11-26T22:18:15.053Z,47.35
2017-11-26T22:20:41.269Z,47.34
2017-11-26T22:23:07.475Z,47.34
2017-11-26T22:25:33.847Z,47.40
2017-11-26T22:28:00.084Z,47.44
2017-11-26T22:30:26.285Z,47.45
2017-11-26T22:32:52.630Z,47.39
2017-11-26T22:35:18.832Z,47.42
2017-11-26T22:37:45.053Z,47.44
2017-11-26T22:40:11.326Z,47.46
2017-11-26T22:42:37.521Z,47.43
2017-11-26T22:45:03.737Z,47.43
2017-11-26T22:47:29.992Z,47.38
2017-11-26T22:49:56.212Z,47.40
2017-11-26T22:52:22.414Z,47.43
2017-11-26T22:54:48.695Z,47.38
2017-11-26T22:57:14.895Z,47.38
2017-11-26T22:59:41.153Z,47.37
2017-11-26T23:02:07.602Z,47.34
2017-11-26T23:04:49.486Z,47.29
2017-11-26T23:07:15.739Z,47.24
2017-11-26T23:09:41.982Z,47.31
2017-11-26T23:12:08.203Z,47.35
2017-11-26T23:14:34.467Z,47.34
2017-11-26T23:17:00.677Z,47.30
2017-11-26T23:19:26.892Z,47.27
2017-11-26T23:21:53.248Z,47.33
2017-11-26T23:24:19.709Z,47.33
2017-11-26T23:26:45.924Z,47.31
2017-11-26T23:29:12.197Z,47.29
2017-11-26T23:31:38.404Z,47.25
2017-11-26T23:34:04.608Z,47.25
2017-11-26T23:36:30.882Z,47.23
2017-11-26T23:38:57.087Z,47.23
2017-11-26T23:41:23.278Z,47.19
2017-11-26T23:43:49.612Z,47.22
2017-11-26T23:46:15.819Z,47.22
2017-11-26T23:48:42.387Z,47.28
2017-11-26T23:51:08.684Z,47.26
2017-11-26T23:53:34.949Z,47.23
2017-11-26T23:56:01.144Z,47.15
2017-11-26T23:58:27.494Z,47.11
